Time;durP1;ratioP1;P1;durP2;ratioP2;P2;SDS_P1;SDS_P2;PMS_P1;PMS_P2;Temp;Humidity;BMP_temperature;BMP_pressure;BME280_temperature;BME280_humidity;BME280_pressure;Samples;Min_cycle;Max_cycle;Signal;HPM_P1;HPM_P2
2022/10/05 00:01:53;;;;;;;13.38;7.90;;;10.00;99.90;;;;;;7352717;32;20126;-61
2022/10/05 00:05:56;;;;;;;10.57;7.80;;;10.00;99.90;;;;;;7348960;32;20141;-61
2022/10/05 00:09:59;;;;;;;12.68;8.20;;;10.00;99.90;;;;;;7347043;32;20111;-63
2022/10/05 00:14:06;;;;;;;12.88;8.13;;;10.00;99.90;;;;;;7346254;32;20619;-61
2022/10/05 00:18:28;;;;;;;14.38;8.27;;;10.00;99.90;;;;;;7342729;32;20190;-61
2022/10/05 00:22:32;;;;;;;10.88;7.22;;;10.00;99.90;;;;;;7351855;32;20463;-61
2022/10/05 00:26:33;;;;;;;13.70;8.32;;;10.00;99.90;;;;;;7340157;32;20855;-60
2022/10/05 00:30:35;;;;;;;15.48;7.93;;;10.10;99.90;;;;;;7341782;32;20095;-61
2022/10/05 00:34:38;;;;;;;11.90;8.43;;;10.10;99.90;;;;;;7349870;32;20716;-62
2022/10/05 00:38:40;;;;;;;19.60;8.90;;;10.20;99.90;;;;;;7343276;32;20169;-61
2022/10/05 00:42:54;;;;;;;11.18;8.15;;;10.20;99.90;;;;;;7337784;32;20095;-61
2022/10/05 00:47:33;;;;;;;12.60;7.60;;;10.20;99.90;;;;;;7339815;32;20612;-62
2022/10/05 00:51:40;;;;;;;16.25;8.73;;;10.30;99.90;;;;;;7340072;32;20508;-61
2022/10/05 00:56:02;;;;;;;14.25;8.25;;;10.30;99.90;;;;;;7346185;32;20130;-61
2022/10/05 01:00:17;;;;;;;13.73;8.40;;;10.30;99.90;;;;;;7341452;32;20104;-61
2022/10/05 01:04:27;;;;;;;11.80;7.65;;;10.30;99.90;;;;;;7341278;32;20115;-61
2022/10/05 01:08:52;;;;;;;12.20;8.77;;;10.20;99.90;;;;;;7343147;32;20520;-62
2022/10/05 01:13:11;;;;;;;12.85;8.88;;;10.30;99.90;;;;;;7343388;32;20100;-61
2022/10/05 01:17:24;;;;;;;16.35;8.05;;;10.20;99.90;;;;;;7344538;32;20683;-61
2022/10/05 01:21:29;;;;;;;13.13;8.63;;;10.20;99.90;;;;;;7346690;32;20240;-62
2022/10/05 01:25:34;;;;;;;17.25;9.30;;;10.20;99.90;;;;;;7354935;32;20129;-62
2022/10/05 01:29:47;;;;;;;18.15;8.80;;;10.10;99.90;;;;;;7347932;32;20398;-61
2022/10/05 01:34:25;;;;;;;14.15;9.48;;;10.10;99.90;;;;;;7344026;32;20099;-61
2022/10/05 01:38:45;;;;;;;15.45;8.82;;;10.10;99.90;;;;;;7291942;32;20213;-61
2022/10/05 01:43:08;;;;;;;16.85;9.25;;;10.10;99.90;;;;;;7344961;32;20562;-61
2022/10/05 01:47:29;;;;;;;15.32;9.43;;;10.10;99.90;;;;;;7346844;32;20130;-61
2022/10/05 01:51:33;;;;;;;12.30;7.95;;;10.20;99.90;;;;;;7354481;32;20129;-61
2022/10/05 01:55:54;;;;;;;13.80;8.45;;;10.20;99.90;;;;;;7351400;32;20222;-62
2022/10/05 02:00:09;;;;;;;16.25;9.57;;;10.20;99.90;;;;;;7349792;32;20103;-60
2022/10/05 02:04:18;;;;;;;14.15;8.90;;;10.20;99.90;;;;;;7350571;32;20129;-61
2022/10/05 02:09:15;;;;;;;14.35;8.68;;;10.20;99.90;;;;;;7352538;32;20205;-61
2022/10/05 02:13:27;;;;;;;13.95;9.02;;;10.30;99.90;;;;;;7312950;32;20202;-62
2022/10/05 02:17:37;;;;;;;13.30;8.13;;;10.30;99.90;;;;;;7351297;32;20099;-62
2022/10/05 02:21:41;;;;;;;11.95;8.85;;;10.30;99.90;;;;;;7354210;32;20486;-62
2022/10/05 02:25:46;;;;;;;12.73;8.13;;;10.30;99.90;;;;;;7347420;32;20129;-62
2022/10/05 02:29:49;;;;;;;14.20;9.45;;;10.30;99.90;;;;;;7346193;32;20463;-61
2022/10/05 02:33:51;;;;;;;13.32;8.55;;;10.30;99.90;;;;;;7345439;32;20776;-61
2022/10/05 02:38:03;;;;;;;11.95;9.30;;;10.30;99.90;;;;;;7343797;32;20651;-62
2022/10/05 02:42:33;;;;;;;14.45;8.63;;;10.50;99.90;;;;;;7347900;32;20099;-61
2022/10/05 02:46:56;;;;;;;12.65;8.57;;;10.40;99.90;;;;;;7348861;32;20526;-61
2022/10/05 02:51:22;;;;;;;9.70;8.15;;;10.50;99.90;;;;;;7350779;32;20475;-62
2022/10/05 02:55:47;;;;;;;15.40;9.52;;;10.50;99.90;;;;;;7345558;32;20759;-60
2022/10/05 03:00:13;;;;;;;12.13;8.68;;;10.60;99.90;;;;;;7341443;32;20107;-61
2022/10/05 03:04:40;;;;;;;16.25;8.77;;;10.60;99.90;;;;;;7348373;32;20133;-62
2022/10/05 03:09:02;;;;;;;17.52;9.40;;;10.70;99.90;;;;;;7346180;32;20143;-61
2022/10/05 03:13:18;;;;;;;16.50;8.95;;;10.80;99.90;;;;;;7350496;32;20453;-61
2022/10/05 03:18:07;;;;;;;12.48;8.52;;;10.80;99.90;;;;;;7338799;32;20103;-62
2022/10/05 03:22:37;;;;;;;16.00;9.02;;;10.90;99.90;;;;;;7301221;32;20232;-61
2022/10/05 03:27:10;;;;;;;18.58;9.45;;;10.90;99.90;;;;;;7345483;32;20103;-61
2022/10/05 03:31:24;;;;;;;14.43;10.00;;;11.00;99.90;;;;;;7341358;32;20142;-61
2022/10/05 03:35:31;;;;;;;19.20;9.70;;;11.10;99.90;;;;;;7349644;32;20191;-61
2022/10/05 03:39:40;;;;;;;14.63;9.45;;;11.20;99.90;;;;;;7351854;32;20285;-61
2022/10/05 03:44:02;;;;;;;16.62;9.55;;;11.30;99.90;;;;;;7350830;32;20186;-61
2022/10/05 03:48:13;;;;;;;16.23;9.27;;;11.30;99.90;;;;;;7339405;32;20774;-61
2022/10/05 03:52:41;;;;;;;12.43;8.43;;;11.30;99.90;;;;;;7347887;32;20212;-62
2022/10/05 03:56:54;;;;;;;14.07;8.05;;;11.30;99.90;;;;;;7349941;32;20236;-61
2022/10/05 04:01:02;;;;;;;13.73;9.30;;;11.30;99.90;;;;;;7348644;32;20111;-62
2022/10/05 04:05:11;;;;;;;16.25;8.77;;;11.20;99.90;;;;;;7343215;32;20133;-60
2022/10/05 04:09:45;;;;;;;14.25;9.25;;;11.20;99.90;;;;;;7349974;32;20160;-61
2022/10/05 04:13:58;;;;;;;12.65;9.05;;;11.10;99.90;;;;;;7340393;32;20193;-62
2022/10/05 04:18:05;;;;;;;12.05;8.82;;;11.10;99.90;;;;;;7347053;32;20099;-61
2022/10/05 04:22:18;;;;;;;;;;;11.20;99.90;;;;;;7338951;32;20198;-61
2022/10/05 04:26:49;;;;;;;15.65;8.52;;;11.20;99.90;;;;;;7345097;32;20044;-61
2022/10/05 04:30:52;;;;;;;12.88;9.13;;;11.30;99.90;;;;;;7317919;32;20560;-61
2022/10/05 04:35:10;;;;;;;20.17;9.43;;;11.40;99.90;;;;;;7326541;32;20175;-62
2022/10/05 04:39:42;;;;;;;13.05;9.60;;;11.50;99.90;;;;;;7343335;32;20187;-60
2022/10/05 04:43:59;;;;;;;15.85;10.30;;;11.50;99.90;;;;;;7345557;32;20099;-61
2022/10/05 04:48:07;;;;;;;15.77;10.00;;;11.60;99.90;;;;;;7344599;32;20840;-60
2022/10/05 04:52:36;;;;;;;15.88;9.68;;;11.70;99.90;;;;;;7342186;32;20443;-60
2022/10/05 04:56:48;;;;;;;15.38;9.85;;;11.80;99.90;;;;;;7346526;32;20179;-60
2022/10/05 05:01:05;;;;;;;15.35;9.98;;;11.70;99.90;;;;;;7346504;32;20813;-61
2022/10/05 05:05:34;;;;;;;12.52;9.10;;;11.70;99.90;;;;;;7345686;32;20959;-61
2022/10/05 05:10:13;;;;;;;18.50;9.55;;;11.60;99.90;;;;;;7345156;32;20122;-62
2022/10/05 05:14:43;;;;;;;13.95;9.32;;;11.60;99.90;;;;;;7350420;32;20115;-62
2022/10/05 05:19:03;;;;;;;14.40;9.20;;;11.60;99.90;;;;;;7342693;32;20096;-61
2022/10/05 05:23:19;;;;;;;13.68;9.35;;;11.60;99.90;;;;;;7349996;32;20209;-61
2022/10/05 05:27:46;;;;;;;13.80;9.00;;;11.60;99.90;;;;;;7348512;32;20202;-61
2022/10/05 05:32:11;;;;;;;14.90;8.73;;;11.80;99.90;;;;;;7342065;32;20194;-64
2022/10/05 05:36:30;;;;;;;12.88;8.45;;;11.80;99.90;;;;;;7344105;32;20547;-61
2022/10/05 05:41:04;;;;;;;;;;;11.70;99.90;;;;;;7347059;32;20100;-63
2022/10/05 05:45:34;;;;;;;15.02;11.23;;;11.80;99.90;;;;;;7345375;32;20037;-63
2022/10/05 05:49:45;;;;;;;10.93;8.10;;;11.90;99.90;;;;;;7339275;32;20102;-64
2022/10/05 05:53:53;;;;;;;13.60;9.00;;;11.90;99.90;;;;;;7350674;32;20223;-65
2022/10/05 05:57:57;;;;;;;12.95;8.68;;;11.90;99.90;;;;;;7350815;32;20232;-62
2022/10/05 06:02:07;;;;;;;11.85;8.38;;;11.90;99.90;;;;;;7336967;32;20125;-63
2022/10/05 06:06:13;;;;;;;12.45;8.75;;;12.00;99.90;;;;;;7341024;32;20455;-63
2022/10/05 06:10:27;;;;;;;11.93;8.30;;;11.90;99.90;;;;;;7348662;32;20086;-64
2022/10/05 06:14:33;;;;;;;12.30;8.65;;;11.90;99.90;;;;;;7344492;32;20134;-65
2022/10/05 06:18:38;;;;;;;11.48;8.43;;;12.00;99.90;;;;;;7336783;32;20103;-63
2022/10/05 06:22:44;;;;;;;14.40;8.95;;;12.00;99.90;;;;;;7342264;32;20121;-63
2022/10/05 06:27:11;;;;;;;12.75;8.27;;;12.00;99.90;;;;;;7350453;32;20245;-63
2022/10/05 06:31:34;;;;;;;16.27;9.10;;;12.00;99.90;;;;;;7339895;32;20868;-62
2022/10/05 06:35:47;;;;;;;12.05;8.60;;;12.10;99.90;;;;;;7343338;32;20127;-63
2022/10/05 06:39:58;;;;;;;12.07;8.15;;;12.10;99.90;;;;;;7347590;32;20114;-65
2022/10/05 06:44:16;;;;;;;11.27;8.02;;;12.10;99.90;;;;;;7351349;32;20216;-62
2022/10/05 06:48:40;;;;;;;13.13;8.27;;;12.20;99.90;;;;;;7344837;32;20130;-65
2022/10/05 06:52:51;;;;;;;15.88;8.75;;;12.20;99.90;;;;;;7341520;32;20111;-63
2022/10/05 06:57:07;;;;;;;12.35;7.97;;;12.30;99.90;;;;;;7342258;32;20190;-65
2022/10/05 07:01:22;;;;;;;12.68;7.62;;;12.30;99.90;;;;;;7338477;32;20133;-64
2022/10/05 07:05:46;;;;;;;11.82;7.37;;;12.40;99.90;;;;;;7345785;32;20112;-66
2022/10/05 07:10:00;;;;;;;11.82;8.02;;;12.40;99.90;;;;;;7340700;32;20137;-63
2022/10/05 07:14:23;;;;;;;9.55;7.47;;;12.50;99.90;;;;;;7347885;32;20170;-63
2022/10/05 07:18:32;;;;;;;14.23;7.30;;;12.60;99.90;;;;;;7341290;32;20099;-67
2022/10/05 07:23:11;;;;;;;11.70;7.72;;;12.60;99.90;;;;;;7342831;32;20547;-63
2022/10/05 07:27:17;;;;;;;11.38;8.00;;;12.50;99.90;;;;;;7351002;32;20104;-64
2022/10/05 07:31:32;;;;;;;11.88;7.37;;;12.60;99.90;;;;;;7340394;32;20516;-65
2022/10/05 07:40:38;;;;;;;10.18;6.97;;;12.70;99.90;;;;;;7351094;32;20108;-64
2022/10/05 07:44:52;;;;;;;11.93;7.47;;;12.70;99.90;;;;;;7342203;32;20100;-64
2022/10/05 07:48:59;;;;;;;10.68;7.05;;;12.70;99.90;;;;;;7339156;32;20127;-63
2022/10/05 07:53:24;;;;;;;8.55;7.12;;;12.80;99.90;;;;;;7342069;32;20566;-64
2022/10/05 07:57:56;;;;;;;11.40;7.20;;;12.90;99.90;;;;;;7344939;32;20175;-64
2022/10/05 08:02:27;;;;;;;9.45;7.35;;;13.00;99.90;;;;;;7338361;32;20111;-64
2022/10/05 08:06:54;;;;;;;8.73;6.22;;;13.10;99.90;;;;;;7349969;32;20125;-65
2022/10/05 08:11:06;;;;;;;7.97;5.47;;;13.20;99.90;;;;;;7349630;32;20111;-64
2022/10/05 08:15:19;;;;;;;9.27;5.78;;;13.40;99.90;;;;;;7340664;32;20735;-64
2022/10/05 08:19:24;;;;;;;7.93;5.45;;;13.50;99.90;;;;;;7346256;32;20103;-63
2022/10/05 08:23:43;;;;;;;10.35;5.75;;;13.60;99.90;;;;;;7341038;32;20107;-63
2022/10/05 08:28:14;;;;;;;13.32;5.50;;;13.80;99.90;;;;;;7342214;32;20206;-63
2022/10/05 08:32:23;;;;;;;7.82;4.78;;;13.90;99.90;;;;;;7311283;32;20183;-63
2022/10/05 08:36:48;;;;;;;8.85;5.37;;;14.00;99.90;;;;;;7351916;32;20121;-63
2022/10/05 08:41:31;;;;;;;8.05;4.68;;;14.10;99.90;;;;;;7357036;32;20107;-63
2022/10/05 08:45:32;;;;;;;;;;;14.30;99.90;;;;;;7356597;32;20111;-63
2022/10/05 08:49:53;;;;;;;6.47;3.95;;;14.40;99.90;;;;;;7342983;32;20024;-63
2022/10/05 08:54:19;;;;;;;7.05;4.12;;;14.50;99.90;;;;;;7346196;32;20186;-63
2022/10/05 08:58:45;;;;;;;8.65;4.25;;;14.60;99.90;;;;;;7351163;32;20092;-63
2022/10/05 09:03:16;;;;;;;6.95;3.80;;;14.70;99.90;;;;;;7354490;32;20119;-64
2022/10/05 09:07:44;;;;;;;4.70;3.70;;;14.70;99.90;;;;;;7347559;32;20198;-63
2022/10/05 09:12:08;;;;;;;7.80;4.20;;;14.80;99.90;;;;;;7353062;32;20129;-63
2022/10/05 09:16:22;;;;;;;7.12;3.50;;;14.80;99.90;;;;;;7352999;32;20115;-63
2022/10/05 09:20:32;;;;;;;9.32;3.70;;;15.00;99.90;;;;;;7342480;32;20099;-63
2022/10/05 09:24:46;;;;;;;8.07;3.30;;;15.10;99.90;;;;;;7346261;32;22617;-63
2022/10/05 09:29:24;;;;;;;10.82;3.85;;;15.30;99.90;;;;;;7343544;32;20100;-64
2022/10/05 09:33:35;;;;;;;7.47;3.37;;;15.30;99.90;;;;;;7344862;32;20111;-63
2022/10/05 09:37:58;;;;;;;5.45;3.20;;;15.40;99.90;;;;;;7347655;32;20186;-65
2022/10/05 09:42:29;;;;;;;5.57;3.33;;;15.50;99.90;;;;;;7343975;32;20099;-63
2022/10/05 09:47:07;;;;;;;5.93;3.50;;;15.50;99.90;;;;;;7346751;32;20123;-63
2022/10/05 09:51:37;;;;;;;4.60;4.00;;;15.60;99.90;;;;;;7341535;32;20495;-63
2022/10/05 09:56:08;;;;;;;4.47;3.72;;;15.60;99.90;;;;;;7341394;32;20111;-63
2022/10/05 10:00:34;;;;;;;7.45;4.25;;;15.60;99.90;;;;;;7343233;32;20121;-63
2022/10/05 10:05:05;;;;;;;7.30;3.65;;;15.60;99.90;;;;;;7360056;32;20111;-64
2022/10/05 10:09:26;;;;;;;5.25;3.90;;;15.60;99.90;;;;;;7338688;32;20739;-63
2022/10/05 10:13:52;;;;;;;7.60;4.00;;;15.70;99.90;;;;;;7345503;32;20208;-66
2022/10/05 10:18:15;;;;;;;6.47;3.40;;;15.80;99.90;;;;;;7344906;32;20118;-63
2022/10/05 10:22:52;;;;;;;5.75;3.03;;;15.90;99.90;;;;;;7349210;32;20107;-63
2022/10/05 10:26:56;;;;;;;5.07;3.05;;;16.00;99.90;;;;;;7349369;32;20111;-64
2022/10/05 10:31:10;;;;;;;6.25;3.00;;;16.10;99.90;;;;;;7347815;32;20920;-64
2022/10/05 10:35:24;;;;;;;6.03;2.97;;;16.20;99.90;;;;;;7344028;32;20129;-63
2022/10/05 10:40:06;;;;;;;7.20;3.28;;;16.30;99.90;;;;;;7339181;32;20553;-63
2022/10/05 10:44:29;;;;;;;5.30;2.95;;;16.40;99.90;;;;;;7342493;32;20339;-63
2022/10/05 10:48:59;;;;;;;8.45;3.00;;;16.40;99.90;;;;;;7341979;32;20121;-64
2022/10/05 10:53:26;;;;;;;6.30;3.22;;;16.40;99.90;;;;;;7339456;32;20157;-63
2022/10/05 10:58:05;;;;;;;5.07;3.12;;;16.50;99.90;;;;;;7344253;32;20134;-65
2022/10/05 11:02:28;;;;;;;4.20;2.83;;;16.50;99.90;;;;;;7341084;32;20111;-63
2022/10/05 11:07:01;;;;;;;5.45;2.65;;;16.70;99.90;;;;;;7349704;32;20137;-64
2022/10/05 11:11:16;;;;;;;3.83;3.05;;;16.80;99.90;;;;;;7346108;32;20142;-64
2022/10/05 11:15:33;;;;;;;4.12;2.60;;;16.90;99.90;;;;;;7347917;32;20230;-61
2022/10/05 11:19:55;;;;;;;5.62;2.47;;;17.10;99.90;;;;;;7349672;32;20467;-61
2022/10/05 11:24:26;;;;;;;4.45;2.22;;;17.30;99.90;;;;;;7346704;32;20163;-60
2022/10/05 11:28:52;;;;;;;3.95;2.12;;;17.80;99.90;;;;;;7343803;32;20257;-61
2022/10/05 11:33:21;;;;;;;4.12;2.58;;;18.00;99.90;;;;;;7344108;32;20115;-60
2022/10/05 11:37:42;;;;;;;4.37;2.22;;;18.20;99.90;;;;;;7347859;32;20134;-64
2022/10/05 11:42:20;;;;;;;4.57;2.53;;;18.20;99.90;;;;;;7340774;32;20190;-64
2022/10/05 11:46:50;;;;;;;5.40;3.00;;;18.40;99.90;;;;;;7346242;32;20096;-63
2022/10/05 11:51:10;;;;;;;3.80;2.45;;;18.50;99.90;;;;;;7343861;32;20175;-63
2022/10/05 11:55:38;;;;;;;5.20;2.67;;;18.40;99.90;;;;;;7346706;32;20109;-64
2022/10/05 11:59:48;;;;;;;9.40;2.55;;;18.40;99.90;;;;;;7337787;32;20961;-63
2022/10/05 12:04:08;;;;;;;5.00;2.25;;;18.50;99.90;;;;;;7341280;32;20111;-64
2022/10/05 12:08:44;;;;;;;4.55;2.80;;;18.70;99.90;;;;;;7346354;32;20202;-65
2022/10/05 12:13:12;;;;;;;4.37;2.50;;;18.90;99.90;;;;;;7349047;32;20103;-64
2022/10/05 12:17:43;;;;;;;6.00;2.67;;;18.80;99.90;;;;;;7340707;32;20107;-64
2022/10/05 12:21:55;;;;;;;6.25;2.22;;;18.80;99.90;;;;;;7341047;32;20216;-64
2022/10/05 12:26:00;;;;;;;4.15;2.92;;;18.90;99.90;;;;;;7342175;32;20166;-66
2022/10/05 12:30:14;;;;;;;6.18;2.65;;;19.00;99.90;;;;;;7343973;32;20107;-64
2022/10/05 12:34:44;;;;;;;5.45;2.53;;;19.10;99.90;;;;;;7347682;32;20107;-65
2022/10/05 12:38:54;;;;;;;5.12;2.40;;;19.10;99.90;;;;;;7341722;32;20126;-58
2022/10/05 12:43:13;;;;;;;2.53;2.22;;;19.20;99.90;;;;;;7339783;32;20698;-64
2022/10/05 12:47:39;;;;;;;4.70;2.15;;;19.20;99.90;;;;;;7348783;32;20695;-65
2022/10/05 12:51:55;;;;;;;2.92;1.67;;;19.30;99.90;;;;;;7348852;32;20098;-64
2022/10/05 12:56:33;;;;;;;4.30;1.83;;;19.50;99.90;;;;;;7346724;32;20270;-63
2022/10/05 13:00:44;;;;;;;2.78;1.45;;;19.70;99.90;;;;;;7334897;32;20130;-64
2022/10/05 13:05:07;;;;;;;5.20;1.73;;;19.60;99.90;;;;;;7339285;32;20111;-64
2022/10/05 13:09:32;;;;;;;5.40;1.48;;;19.70;99.90;;;;;;7343532;32;20224;-63
2022/10/05 13:13:44;;;;;;;3.08;1.35;;;19.80;99.90;;;;;;7311661;32;20661;-64
2022/10/05 13:17:53;;;;;;;5.25;1.00;;;20.10;99.90;;;;;;7338629;32;20157;-64
2022/10/05 13:22:25;;;;;;;5.32;1.25;;;20.70;99.90;;;;;;7348943;32;20154;-64
2022/10/05 13:26:42;;;;;;;3.92;1.02;;;20.90;99.90;;;;;;7349412;32;20455;-64
2022/10/05 13:30:59;;;;;;;1.70;1.12;;;21.00;99.90;;;;;;7350848;32;20126;-64
2022/10/05 13:35:17;;;;;;;3.85;1.00;;;20.90;99.90;;;;;;7339938;32;20111;-64
2022/10/05 13:39:29;;;;;;;1.95;1.23;;;20.90;99.90;;;;;;7342247;32;20600;-64
2022/10/05 13:43:49;;;;;;;4.00;1.55;;;20.60;99.90;;;;;;7342821;32;20130;-65
2022/10/05 13:48:14;;;;;;;1.12;0.82;;;20.50;99.90;;;;;;7344270;32;20170;-65
2022/10/05 13:52:37;;;;;;;3.80;1.10;;;20.50;99.90;;;;;;7352918;32;20186;-64
2022/10/05 13:56:44;;;;;;;1.98;0.98;;;20.60;99.90;;;;;;7346248;32;20239;-65
2022/10/05 14:00:52;;;;;;;5.87;1.10;;;20.70;99.90;;;;;;7345786;32;20143;-65
2022/10/05 14:05:12;;;;;;;3.42;0.93;;;20.90;99.90;;;;;;7342291;32;20123;-64
2022/10/05 14:09:33;;;;;;;3.85;0.85;;;21.10;99.90;;;;;;7340504;32;20123;-64
2022/10/05 14:13:46;;;;;;;3.22;1.17;;;21.40;99.90;;;;;;7342186;32;20690;-65
2022/10/05 14:17:50;;;;;;;3.72;0.90;;;21.40;99.90;;;;;;7349922;32;20096;-64
2022/10/05 14:21:58;;;;;;;3.70;0.90;;;21.30;99.90;;;;;;7348825;32;20107;-66
2022/10/05 14:26:00;;;;;;;1.83;0.88;;;21.30;99.90;;;;;;7343796;32;20130;-65
2022/10/05 14:30:11;;;;;;;4.53;0.90;;;21.00;99.90;;;;;;7346185;32;20118;-65
2022/10/05 14:34:34;;;;;;;2.53;0.80;;;20.90;99.90;;;;;;7344961;32;20145;-65
2022/10/05 14:39:00;;;;;;;2.58;0.90;;;20.70;99.90;;;;;;7344884;32;20530;-65
2022/10/05 14:43:14;;;;;;;2.05;1.23;;;20.60;99.90;;;;;;7342168;32;20095;-65
2022/10/05 14:47:21;;;;;;;2.05;1.00;;;20.50;99.90;;;;;;7346506;32;20148;-65
2022/10/05 14:51:30;;;;;;;3.62;1.25;;;20.60;99.90;;;;;;7352239;32;20118;-65
2022/10/05 14:55:49;;;;;;;4.28;1.23;;;20.40;99.90;;;;;;7344574;32;20149;-65
2022/10/05 15:00:10;;;;;;;2.58;1.20;;;20.30;99.90;;;;;;7332341;32;20119;-66
2022/10/05 15:04:37;;;;;;;2.60;1.10;;;20.20;99.90;;;;;;7329564;32;20225;-65
2022/10/05 15:09:17;;;;;;;3.55;1.20;;;20.20;99.90;;;;;;7338168;32;20268;-65
2022/10/05 15:13:31;;;;;;;3.53;1.08;;;20.30;99.90;;;;;;7338560;32;20210;-65
2022/10/05 15:17:51;;;;;;;1.85;0.80;;;20.10;99.90;;;;;;7342705;32;20234;-65
2022/10/05 15:21:56;;;;;;;2.80;1.05;;;20.10;99.90;;;;;;7349529;32;20550;-65
2022/10/05 15:26:14;;;;;;;2.90;1.10;;;20.10;99.90;;;;;;7347207;32;20106;-64
2022/10/05 15:30:17;;;;;;;3.12;1.05;;;20.00;99.90;;;;;;7343331;32;20099;-63
2022/10/05 15:34:35;;;;;;;2.80;1.00;;;19.80;99.90;;;;;;7343330;32;20234;-64
2022/10/05 15:39:05;;;;;;;3.53;1.27;;;19.80;99.90;;;;;;7338640;32;20096;-64
2022/10/05 15:43:15;;;;;;;2.00;1.02;;;19.90;99.90;;;;;;7333893;32;20104;-63
2022/10/05 15:47:34;;;;;;;2.20;1.10;;;19.90;99.90;;;;;;7345951;32;20572;-64
2022/10/05 15:52:00;;;;;;;2.85;1.08;;;19.90;99.90;;;;;;7347618;32;20229;-64
2022/10/05 15:56:28;;;;;;;3.83;1.00;;;20.00;99.90;;;;;;7339715;32;20108;-63
2022/10/05 16:00:42;;;;;;;5.85;1.30;;;20.00;99.90;;;;;;7355788;32;20250;-64
2022/10/05 16:04:52;;;;;;;2.47;1.05;;;20.00;99.90;;;;;;7346160;32;20123;-65
2022/10/05 16:09:32;;;;;;;1.60;1.00;;;20.00;99.90;;;;;;7345686;32;20558;-63
2022/10/05 16:13:44;;;;;;;3.17;1.30;;;20.00;99.90;;;;;;7343311;32;20889;-64
2022/10/05 16:18:13;;;;;;;3.33;1.23;;;19.90;99.90;;;;;;7342290;32;20103;-64
2022/10/05 16:22:23;;;;;;;3.47;1.15;;;19.80;99.90;;;;;;7349822;32;20121;-64
2022/10/05 16:26:41;;;;;;;3.33;1.70;;;19.80;99.90;;;;;;7343121;32;20111;-64
2022/10/05 16:31:17;;;;;;;4.90;1.42;;;19.70;99.90;;;;;;7348745;32;20104;-64
2022/10/05 16:35:43;;;;;;;3.60;1.33;;;19.70;99.90;;;;;;7344849;32;20170;-64
2022/10/05 16:40:02;;;;;;;7.30;1.42;;;19.60;99.90;;;;;;7343854;32;20178;-65
2022/10/05 16:44:21;;;;;;;4.57;1.40;;;19.40;99.90;;;;;;7340492;32;20222;-64
2022/10/05 16:48:58;;;;;;;4.53;1.48;;;19.40;99.90;;;;;;7339754;32;20169;-67
2022/10/05 16:53:20;;;;;;;3.03;1.30;;;19.30;99.90;;;;;;7353741;32;20198;-64
2022/10/05 16:57:31;;;;;;;5.47;1.20;;;19.20;99.90;;;;;;7343601;32;20593;-65
2022/10/05 17:01:59;;;;;;;8.63;1.50;;;19.00;99.90;;;;;;7348238;32;20112;-64
2022/10/05 17:06:16;;;;;;;2.55;1.25;;;18.90;99.90;;;;;;7347460;32;20140;-66
2022/10/05 17:10:44;;;;;;;5.45;2.00;;;18.70;99.90;;;;;;7355008;32;20115;-65
2022/10/05 17:15:32;;;;;;;5.10;1.67;;;18.50;99.90;;;;;;7348770;32;20140;-64
2022/10/05 17:20:01;;;;;;;4.47;1.80;;;18.30;99.90;;;;;;7324103;32;20237;-60
2022/10/05 17:24:18;;;;;;;3.45;1.67;;;18.20;99.90;;;;;;7348116;32;20507;-62
2022/10/05 17:28:38;;;;;;;7.28;1.95;;;18.00;99.90;;;;;;7344774;32;20249;-61
2022/10/05 17:32:59;;;;;;;7.75;1.92;;;17.80;99.90;;;;;;7351663;32;20840;-62
2022/10/05 17:37:26;;;;;;;7.95;2.45;;;17.60;99.90;;;;;;7343803;32;20137;-62
2022/10/05 17:41:29;;;;;;;4.60;2.30;;;17.50;99.90;;;;;;7349647;32;20546;-63
2022/10/05 17:45:30;;;;;;;3.75;1.70;;;17.40;99.90;;;;;;7353934;32;20685;-60
2022/10/05 17:58:54;;;;;;;4.75;1.83;;;17.50;99.90;;;;;;7347422;32;20125;-61
2022/10/05 18:02:56;;;;;;;6.72;1.67;;;17.60;99.90;;;;;;7338006;32;20150;-60
2022/10/05 18:07:13;;;;;;;6.35;1.70;;;17.60;99.90;;;;;;7340973;32;20123;-61
2022/10/05 18:11:36;;;;;;;3.43;1.80;;;17.60;99.90;;;;;;7347002;32;20103;-60
2022/10/05 18:15:39;;;;;;;3.15;1.60;;;17.60;99.90;;;;;;7346055;32;20179;-61
2022/10/05 18:20:12;;;;;;;5.12;1.83;;;17.50;99.90;;;;;;7345559;32;20694;-61
2022/10/05 18:24:35;;;;;;;7.87;2.33;;;17.40;99.90;;;;;;7340139;32;20134;-60
2022/10/05 18:28:51;;;;;;;5.22;1.73;;;17.40;99.90;;;;;;7350908;32;20135;-60
2022/10/05 18:33:21;;;;;;;3.75;1.55;;;17.40;99.90;;;;;;7347706;32;20135;-61
2022/10/05 18:38:09;;;;;;;4.47;1.30;;;17.50;99.90;;;;;;7349843;32;20511;-63
2022/10/05 18:42:30;;;;;;;3.20;1.83;;;17.40;99.90;;;;;;7306226;32;20137;-62
2022/10/05 18:46:38;;;;;;;3.40;1.73;;;17.50;99.90;;;;;;7340547;32;20126;-62
2022/10/05 18:50:52;;;;;;;2.72;1.55;;;17.30;99.90;;;;;;7347925;32;20225;-62
2022/10/05 18:55:17;;;;;;;5.40;1.80;;;17.40;99.90;;;;;;7348865;32;20202;-62
2022/10/05 18:59:52;;;;;;;5.22;1.48;;;17.40;99.90;;;;;;7341673;32;20174;-62
2022/10/05 19:03:54;;;;;;;4.12;1.65;;;17.30;99.90;;;;;;7343725;32;20091;-63
2022/10/05 19:08:11;;;;;;;4.35;1.50;;;17.20;99.90;;;;;;7345039;32;20125;-62
2022/10/05 19:12:40;;;;;;;3.80;1.60;;;17.20;99.90;;;;;;7354773;32;20100;-61
2022/10/05 19:16:53;;;;;;;4.90;1.30;;;17.30;99.90;;;;;;7350769;32;20232;-61
2022/10/05 19:21:09;;;;;;;2.35;1.35;;;17.40;99.90;;;;;;7337391;32;20122;-62
2022/10/05 19:25:27;;;;;;;2.65;1.52;;;17.20;99.90;;;;;;7342992;32;20131;-62
2022/10/05 19:29:48;;;;;;;3.87;1.20;;;17.30;99.90;;;;;;7345689;32;20123;-61
2022/10/05 19:34:18;;;;;;;3.10;1.62;;;17.40;99.90;;;;;;7345639;32;20613;-62
2022/10/05 19:38:24;;;;;;;2.62;1.60;;;17.40;99.90;;;;;;7344555;32;20695;-60
2022/10/05 19:42:54;;;;;;;5.28;1.50;;;17.40;99.90;;;;;;7344404;32;20110;-61
2022/10/05 19:47:04;;;;;;;5.22;1.42;;;17.40;99.90;;;;;;7341262;32;20107;-61
2022/10/05 19:51:27;;;;;;;5.00;1.50;;;17.50;99.90;;;;;;7343093;32;20226;-62
2022/10/05 19:55:42;;;;;;;2.85;1.33;;;17.50;99.90;;;;;;7342332;32;20107;-63
2022/10/05 19:59:46;;;;;;;4.95;1.50;;;17.40;99.90;;;;;;7344860;32;20102;-60
2022/10/05 20:03:49;;;;;;;3.20;1.37;;;17.60;99.90;;;;;;7342268;32;20471;-61
2022/10/05 20:07:51;;;;;;;3.75;1.40;;;17.60;99.90;;;;;;7341443;32;20145;-61
2022/10/05 20:11:53;;;;;;;2.78;1.52;;;17.60;99.90;;;;;;7341025;32;20122;-60
2022/10/05 20:20:38;;;;;;;4.77;1.37;;;17.60;99.90;;;;;;7338548;32;20141;-60
2022/10/05 20:25:08;;;;;;;3.58;1.37;;;17.60;99.90;;;;;;7349574;32;20339;-62
2022/10/05 20:29:10;;;;;;;3.08;1.20;;;17.60;99.90;;;;;;7347506;32;20202;-61
2022/10/05 20:33:14;;;;;;;3.45;1.50;;;17.50;99.90;;;;;;7348489;32;20206;-62
2022/10/05 20:37:17;;;;;;;3.58;1.50;;;17.40;99.90;;;;;;7345557;32;20099;-61
2022/10/05 20:41:19;;;;;;;3.83;1.85;;;17.60;99.90;;;;;;7336083;32;20114;-61
2022/10/05 20:45:21;;;;;;;6.95;1.58;;;17.50;99.90;;;;;;7345097;32;20793;-62
2022/10/05 20:49:35;;;;;;;4.03;1.58;;;17.60;99.90;;;;;;7345637;32;20104;-63
2022/10/05 20:53:37;;;;;;;7.05;1.52;;;17.60;99.90;;;;;;7339694;32;20194;-62
2022/10/05 20:57:40;;;;;;;4.82;1.58;;;17.60;99.90;;;;;;7344181;32;20213;-60
2022/10/05 21:01:46;;;;;;;4.90;1.12;;;17.50;99.90;;;;;;7338077;32;20096;-61
2022/10/05 21:05:48;;;;;;;5.43;1.50;;;17.70;99.90;;;;;;7338273;32;20103;-61
2022/10/05 21:09:51;;;;;;;7.60;1.92;;;17.80;99.90;;;;;;7336386;32;20210;-60
2022/10/05 21:13:53;;;;;;;4.00;1.52;;;17.80;99.90;;;;;;7339164;32;20445;-60
2022/10/05 21:17:55;;;;;;;6.53;1.70;;;17.80;99.90;;;;;;7339458;32;20130;-61
2022/10/05 21:21:57;;;;;;;2.78;1.40;;;17.80;99.90;;;;;;7343571;32;20103;-61
2022/10/05 21:26:00;;;;;;;4.53;1.67;;;17.80;99.90;;;;;;7344663;32;20840;-60
2022/10/05 21:30:02;;;;;;;6.03;1.67;;;17.80;99.90;;;;;;7344367;32;20135;-60
2022/10/05 21:34:04;;;;;;;6.00;1.92;;;17.70;99.90;;;;;;7353477;32;20814;-60
2022/10/05 21:38:05;;;;;;;5.53;1.75;;;17.70;99.90;;;;;;7342075;32;20180;-60
2022/10/05 21:42:07;;;;;;;7.28;1.92;;;17.70;99.90;;;;;;7345756;32;20531;-61
2022/10/05 21:46:11;;;;;;;7.68;2.20;;;17.70;99.90;;;;;;7340798;32;20103;-61
2022/10/05 21:50:13;;;;;;;7.70;1.60;;;17.60;99.90;;;;;;7344660;32;20095;-60
2022/10/05 21:54:18;;;;;;;7.15;2.00;;;17.60;99.90;;;;;;7346223;32;20201;-61
2022/10/05 21:58:21;;;;;;;7.35;2.75;;;17.40;99.90;;;;;;7340223;32;20137;-60
2022/10/05 22:02:23;;;;;;;3.33;1.80;;;16.90;99.90;;;;;;7341738;32;20190;-61
2022/10/05 22:06:24;;;;;;;3.20;1.50;;;16.30;99.90;;;;;;7342502;32;20107;-61
2022/10/05 22:10:26;;;;;;;2.53;1.45;;;16.10;99.90;;;;;;7349000;32;20234;-61
2022/10/05 22:14:28;;;;;;;4.05;1.40;;;15.90;99.90;;;;;;7344105;32;20193;-61
2022/10/05 22:18:29;;;;;;;4.00;1.30;;;15.80;99.90;;;;;;7343299;32;20107;-60
2022/10/05 22:22:32;;;;;;;5.30;1.20;;;15.70;99.90;;;;;;7352816;32;20198;-61
2022/10/05 22:26:34;;;;;;;3.60;0.70;;;15.60;99.90;;;;;;7329369;32;20222;-60
2022/10/05 22:30:36;;;;;;;2.95;0.77;;;15.50;99.90;;;;;;7342855;32;20194;-60